createdAt,value
2023-01-21T00:00:02.850Z,3.04
2023-01-21T00:02:30.242Z,3.11
2023-01-21T00:04:59.041Z,3.16
2023-01-21T00:07:26.879Z,3.10
2023-01-21T00:09:54.387Z,3.15
2023-01-21T00:12:22.013Z,3.15
2023-01-21T00:14:49.473Z,3.18
2023-01-21T00:17:16.957Z,3.16
2023-01-21T00:19:44.491Z,3.15
2023-01-21T00:22:13.306Z,3.09
2023-01-21T00:24:40.699Z,3.07
2023-01-21T00:27:08.037Z,3.14
2023-01-21T00:29:35.491Z,3.08
2023-01-21T00:32:02.950Z,3.14
2023-01-21T00:34:30.404Z,3.11
2023-01-21T00:36:57.920Z,3.11
2023-01-21T00:39:26.856Z,3.06
2023-01-21T00:41:54.470Z,3.12
2023-01-21T00:44:21.962Z,3.11
2023-01-21T00:46:49.437Z,3.07
2023-01-21T00:49:17.021Z,3.13
2023-01-21T00:51:44.590Z,3.14
2023-01-21T00:54:12.057Z,3.15
2023-01-21T00:56:40.848Z,2.97
2023-01-21T00:59:08.639Z,3.01
2023-01-21T01:01:38.363Z,3.12
2023-01-21T01:04:07.005Z,3.09
2023-01-21T01:06:35.321Z,3.13
2023-01-21T01:09:02.943Z,3.11
2023-01-21T01:11:31.497Z,3.09
2023-01-21T01:14:00.706Z,3.09
2023-01-21T01:16:28.230Z,3.10
2023-01-21T01:18:56.616Z,3.13
2023-01-21T01:21:24.900Z,3.08
2023-01-21T01:23:54.696Z,3.11
2023-01-21T01:26:23.047Z,3.15
2023-01-21T01:28:50.751Z,3.17
2023-01-21T01:31:20.462Z,3.14
2023-01-21T01:33:48.509Z,3.11
2023-01-21T01:36:19.096Z,3.17
2023-01-21T01:38:46.865Z,3.10
2023-01-21T01:41:17.285Z,3.16
2023-01-21T01:43:51.335Z,3.12
2023-01-21T01:46:20.585Z,3.11
2023-01-21T01:48:50.456Z,3.15
2023-01-21T01:51:19.919Z,3.16
2023-01-21T01:53:48.271Z,3.15
2023-01-21T01:56:16.344Z,3.11
2023-01-21T01:58:44.496Z,3.07
2023-01-21T02:01:12.076Z,3.10
2023-01-21T02:03:50.758Z,3.23
2023-01-21T02:06:19.318Z,3.22
2023-01-21T02:08:48.069Z,3.15
2023-01-21T02:11:17.611Z,3.19
2023-01-21T02:13:49.245Z,3.16
2023-01-21T02:16:31.587Z,3.15
2023-01-21T02:19:12.639Z,3.23
2023-01-21T02:21:55.636Z,3.20
2023-01-21T02:24:48.702Z,3.22
2023-01-21T02:27:31.071Z,3.20
2023-01-21T02:30:24.723Z,3.10
2023-01-21T02:33:18.487Z,3.08
2023-01-21T02:35:50.543Z,3.14
2023-01-21T02:38:25.279Z,2.90
2023-01-21T02:40:59.820Z,2.95
2023-01-21T02:43:32.909Z,3.10
2023-01-21T02:46:04.507Z,3.07
2023-01-21T02:48:36.074Z,2.80
2023-01-21T02:51:03.519Z,2.87
2023-01-21T02:53:32.553Z,2.96
2023-01-21T02:56:04.073Z,3.02
2023-01-21T02:58:34.407Z,3.02
2023-01-21T03:01:13.537Z,3.20
2023-01-21T03:03:58.452Z,3.20
2023-01-21T03:06:51.757Z,3.13
2023-01-21T03:09:23.007Z,3.12
2023-01-21T03:12:03.185Z,3.20
2023-01-21T03:14:50.577Z,3.22
2023-01-21T03:17:23.365Z,3.16
2023-01-21T03:19:57.543Z,3.17
2023-01-21T03:22:28.131Z,3.18
2023-01-21T03:24:57.106Z,3.15
2023-01-21T03:27:26.983Z,3.14
2023-01-21T03:29:58.011Z,3.16
2023-01-21T03:32:26.863Z,3.21
2023-01-21T03:34:56.510Z,3.17
2023-01-21T03:37:30.448Z,3.19
2023-01-21T03:40:04.410Z,3.19
2023-01-21T03:42:32.173Z,3.22
2023-01-21T03:45:00.000Z,3.25
2023-01-21T03:47:31.383Z,3.25
2023-01-21T03:50:02.218Z,3.21
2023-01-21T03:52:30.041Z,3.18
2023-01-21T03:54:57.539Z,3.23
2023-01-21T03:57:25.060Z,3.20
2023-01-21T03:59:52.522Z,3.11
2023-01-21T04:02:21.035Z,3.16
2023-01-21T04:04:48.736Z,3.22
2023-01-21T04:07:17.796Z,3.20
2023-01-21T04:09:45.332Z,3.23
2023-01-21T04:12:13.284Z,3.10
2023-01-21T04:14:40.864Z,3.10
2023-01-21T04:17:09.071Z,3.17
2023-01-21T04:19:36.925Z,2.97
2023-01-21T04:22:06.723Z,3.09
2023-01-21T04:27:16.950Z,2.80
2023-01-21T04:29:44.455Z,3.04
2023-01-21T04:32:12.072Z,2.95
2023-01-21T04:34:39.625Z,3.02
2023-01-21T04:37:07.627Z,2.92
2023-01-21T04:39:35.115Z,3.01
2023-01-21T04:42:03.038Z,3.05
2023-01-21T04:44:31.968Z,2.87
2023-01-21T04:46:59.464Z,3.03
2023-01-21T04:49:27.084Z,2.96
2023-01-21T04:51:54.716Z,3.12
2023-01-21T04:54:22.164Z,3.10
2023-01-21T04:56:49.570Z,2.96
2023-01-21T04:59:17.578Z,2.90
2023-01-21T05:01:46.517Z,2.76
2023-01-21T05:04:14.036Z,2.87
2023-01-21T05:06:41.470Z,2.92
2023-01-21T05:09:09.262Z,2.94
2023-01-21T05:11:37.172Z,3.09
2023-01-21T05:14:04.755Z,3.03
2023-01-21T05:16:32.177Z,2.99
2023-01-21T05:19:01.043Z,3.06
2023-01-21T05:21:28.508Z,2.90
2023-01-21T05:23:56.016Z,3.04
2023-01-21T05:26:23.427Z,3.00
2023-01-21T05:28:50.975Z,3.02
2023-01-21T05:31:18.871Z,2.92
2023-01-21T05:33:47.233Z,2.89
2023-01-21T05:36:16.085Z,2.78
2023-01-21T05:38:43.536Z,2.84
2023-01-21T05:41:11.014Z,2.60
2023-01-21T05:43:38.754Z,2.68
2023-01-21T05:46:06.718Z,2.40
2023-01-21T05:48:34.497Z,2.52
2023-01-21T05:51:03.094Z,2.64
2023-01-21T05:53:32.072Z,2.30
2023-01-21T05:55:59.601Z,2.57
2023-01-21T05:58:27.396Z,2.75
2023-01-21T06:00:55.468Z,2.54
2023-01-21T06:03:23.094Z,2.48
2023-01-21T06:05:51.354Z,2.76
2023-01-21T06:08:19.252Z,2.68
2023-01-21T06:10:48.363Z,2.54
2023-01-21T06:13:16.584Z,2.75
2023-01-21T06:15:44.091Z,2.87
2023-01-21T06:18:11.686Z,2.94
2023-01-21T06:20:39.249Z,2.98
2023-01-21T06:23:06.786Z,3.08
2023-01-21T06:25:34.629Z,3.08
2023-01-21T06:28:03.412Z,2.84
2023-01-21T06:30:30.809Z,2.88
2023-01-21T06:32:58.204Z,2.78
2023-01-21T06:35:25.723Z,2.83
2023-01-21T06:37:53.286Z,2.62
2023-01-21T06:40:20.772Z,2.35
2023-01-21T06:42:48.775Z,2.55
2023-01-21T06:45:18.045Z,2.88
2023-01-21T06:47:46.048Z,2.66
2023-01-21T06:50:15.334Z,2.85
2023-01-21T06:52:43.664Z,2.67
2023-01-21T06:55:11.372Z,2.89
2023-01-21T06:57:39.070Z,3.01
2023-01-21T07:00:08.951Z,3.09
2023-01-21T07:02:37.936Z,2.99
2023-01-21T07:05:06.225Z,3.12
2023-01-21T07:07:33.658Z,3.14
2023-01-21T07:10:01.113Z,3.12
2023-01-21T07:12:28.587Z,3.22
2023-01-21T07:14:56.000Z,3.02
2023-01-21T07:17:24.011Z,3.13
2023-01-21T07:19:53.016Z,3.04
2023-01-21T07:22:21.368Z,3.00
2023-01-21T07:24:48.951Z,3.00
2023-01-21T07:27:16.548Z,3.05
2023-01-21T07:29:44.228Z,3.04
2023-01-21T07:32:12.196Z,2.81
2023-01-21T07:34:39.763Z,2.97
2023-01-21T07:37:08.578Z,2.94
2023-01-21T07:39:36.085Z,2.83
2023-01-21T07:42:04.736Z,2.94
2023-01-21T07:44:32.207Z,3.02
2023-01-21T07:53:00.650Z,2.91
2023-01-21T07:55:29.063Z,2.75
2023-01-21T08:00:37.983Z,2.79
2023-01-21T08:11:14.082Z,2.56
2023-01-21T08:13:41.551Z,2.80
2023-01-21T08:16:11.701Z,2.62
2023-01-21T08:18:39.129Z,2.62
2023-01-21T08:21:06.796Z,2.51
2023-01-21T08:23:34.609Z,2.62
2023-01-21T08:26:03.196Z,2.63
2023-01-21T08:28:32.321Z,2.68
2023-01-21T08:31:04.440Z,2.74
2023-01-21T08:33:31.831Z,2.73
2023-01-21T08:36:01.224Z,2.85
2023-01-21T08:38:28.830Z,2.73
2023-01-21T08:40:57.434Z,2.87
2023-01-21T08:43:25.102Z,2.77
2023-01-21T08:45:57.628Z,2.79
2023-01-21T08:48:25.220Z,2.68
2023-01-21T08:50:52.691Z,2.78
2023-01-21T08:53:21.522Z,2.64
2023-01-21T08:55:49.053Z,2.76
2023-01-21T08:58:16.649Z,2.83
2023-01-21T09:00:44.924Z,2.70
2023-01-21T09:03:17.077Z,2.73
2023-01-21T09:05:44.582Z,2.68
2023-01-21T09:08:12.200Z,2.99
2023-01-21T09:10:57.388Z,2.81
2023-01-21T09:13:24.800Z,2.62
2023-01-21T09:15:52.301Z,2.54
2023-01-21T09:18:21.120Z,2.83
2023-01-21T09:20:48.801Z,2.78
2023-01-21T09:23:25.415Z,2.62
2023-01-21T09:25:53.983Z,2.74
2023-01-21T09:28:22.528Z,2.75
2023-01-21T09:30:50.197Z,2.55
2023-01-21T09:33:17.954Z,2.51
2023-01-21T09:35:54.376Z,2.58
2023-01-21T09:38:22.043Z,2.73
2023-01-21T09:40:50.021Z,2.73
2023-01-21T09:43:22.186Z,2.68
2023-01-21T09:45:51.468Z,2.74
2023-01-21T09:48:28.106Z,2.78
2023-01-21T09:50:58.862Z,2.84
2023-01-21T09:53:29.979Z,2.80
2023-01-21T09:56:00.261Z,2.68
2023-01-21T09:58:45.688Z,2.67
2023-01-21T10:04:06.217Z,2.77
2023-01-21T10:06:41.277Z,2.75
2023-01-21T10:09:22.821Z,2.75
2023-01-21T10:12:01.464Z,2.76
2023-01-21T10:14:48.901Z,2.62
2023-01-21T10:17:20.835Z,2.91
2023-01-21T10:19:52.624Z,2.79
2023-01-21T10:22:26.586Z,2.63
2023-01-21T10:24:58.821Z,2.67
2023-01-21T10:27:27.615Z,2.82
2023-01-21T10:29:59.509Z,2.70
2023-01-21T10:32:28.829Z,2.63
2023-01-21T10:34:57.711Z,2.92
2023-01-21T10:37:35.821Z,2.83
2023-01-21T10:40:11.833Z,2.82
2023-01-21T10:42:51.396Z,2.79
2023-01-21T10:45:28.153Z,2.70
2023-01-21T10:48:02.206Z,2.64
2023-01-21T10:50:36.039Z,2.85
2023-01-21T10:53:13.728Z,2.98
2023-01-21T10:55:53.419Z,2.95
2023-01-21T10:58:26.209Z,2.87
2023-01-21T11:00:54.392Z,2.74
2023-01-21T11:03:33.101Z,2.87
2023-01-21T11:06:04.374Z,2.88
2023-01-21T11:08:34.001Z,2.86
2023-01-21T11:11:04.098Z,2.84
2023-01-21T11:13:32.001Z,2.92
2023-01-21T11:16:01.064Z,3.02
2023-01-21T11:18:32.464Z,2.94
2023-01-21T11:21:05.763Z,3.00
2023-01-21T11:23:39.295Z,2.90
2023-01-21T11:26:10.431Z,2.93
2023-01-21T11:28:38.375Z,2.94
2023-01-21T11:31:14.191Z,3.01
2023-01-21T11:33:43.236Z,2.98
2023-01-21T11:36:14.217Z,2.98
2023-01-21T11:38:44.552Z,3.05
2023-01-21T11:41:19.341Z,3.11
2023-01-21T11:43:49.011Z,3.13
2023-01-21T11:46:29.238Z,3.14
2023-01-21T11:48:58.480Z,3.13
2023-01-21T11:51:26.315Z,3.22
2023-01-21T11:54:14.738Z,3.23
2023-01-21T11:56:44.108Z,3.16
2023-01-21T11:59:16.046Z,3.17
2023-01-21T12:01:52.282Z,3.17
2023-01-21T12:04:19.866Z,3.19
2023-01-21T12:06:48.762Z,3.15
2023-01-21T12:09:20.265Z,3.15
2023-01-21T12:12:03.679Z,3.15
2023-01-21T12:14:38.791Z,3.12
2023-01-21T12:17:12.481Z,3.16
2023-01-21T12:20:01.538Z,3.09
2023-01-21T12:22:39.546Z,3.18
2023-01-21T12:25:23.595Z,3.19
2023-01-21T12:28:07.337Z,3.19
2023-01-21T12:30:41.425Z,3.31
2023-01-21T12:33:14.284Z,3.23
2023-01-21T12:35:43.342Z,3.31
2023-01-21T12:38:14.916Z,3.42
2023-01-21T12:40:47.617Z,3.26
2023-01-21T12:43:18.487Z,3.38
2023-01-21T12:45:47.876Z,3.38
2023-01-21T12:48:19.420Z,3.52
2023-01-21T12:50:49.481Z,3.46
2023-01-21T12:53:21.716Z,3.46
2023-01-21T12:56:04.692Z,3.52
2023-01-21T12:58:33.967Z,3.62
2023-01-21T13:01:04.219Z,3.56
2023-01-21T13:03:41.374Z,3.52
2023-01-21T13:06:11.598Z,3.54
2023-01-21T13:08:50.567Z,3.55
2023-01-21T13:11:22.144Z,3.60
2023-01-21T13:13:57.536Z,3.48
2023-01-21T13:16:27.309Z,3.60
2023-01-21T13:18:56.525Z,3.60
2023-01-21T13:21:34.414Z,3.64
2023-01-21T13:24:11.466Z,3.65
2023-01-21T13:26:46.133Z,3.59
2023-01-21T13:29:17.333Z,3.60
2023-01-21T13:31:48.596Z,3.50
2023-01-21T13:34:23.004Z,3.67
2023-01-21T13:37:00.948Z,3.67
2023-01-21T13:39:33.876Z,3.70
2023-01-21T13:42:16.141Z,3.67
2023-01-21T13:45:05.238Z,3.67
2023-01-21T13:47:46.634Z,3.71
2023-01-21T13:50:21.945Z,3.68
2023-01-21T13:53:03.155Z,3.73
2023-01-21T13:55:39.484Z,3.72
2023-01-21T13:58:10.411Z,3.68
2023-01-21T14:00:41.667Z,3.68
2023-01-21T14:03:15.849Z,3.62
2023-01-21T14:05:46.443Z,3.63
2023-01-21T14:08:18.372Z,3.65
2023-01-21T14:10:49.703Z,3.74
2023-01-21T14:13:46.777Z,3.65
2023-01-21T14:16:28.475Z,3.72
2023-01-21T14:19:10.730Z,3.73
2023-01-21T14:21:48.704Z,3.67
2023-01-21T14:24:25.230Z,3.73
2023-01-21T14:27:05.474Z,3.65
2023-01-21T14:29:37.230Z,3.67
2023-01-21T14:32:13.568Z,3.66
2023-01-21T14:34:46.152Z,3.63
2023-01-21T14:37:16.622Z,3.59
2023-01-21T14:39:52.524Z,3.69
2023-01-21T14:42:26.328Z,3.67
2023-01-21T14:45:06.150Z,3.72
2023-01-21T14:47:45.958Z,3.73
2023-01-21T14:50:47.121Z,3.70
2023-01-21T14:53:19.775Z,3.59
2023-01-21T14:55:47.436Z,3.69
2023-01-21T14:58:22.826Z,3.72
2023-01-21T15:00:52.320Z,3.76
2023-01-21T15:03:21.704Z,3.79
2023-01-21T15:05:52.521Z,3.80
2023-01-21T15:08:23.931Z,3.84
2023-01-21T15:10:56.419Z,3.76
2023-01-21T15:13:34.258Z,3.77
2023-01-21T15:16:14.957Z,3.71
2023-01-21T15:18:48.516Z,3.66
2023-01-21T15:21:43.087Z,3.65
2023-01-21T15:24:24.682Z,3.69
2023-01-21T15:27:14.879Z,3.55
2023-01-21T15:29:43.602Z,3.53
2023-01-21T15:32:23.591Z,3.51
2023-01-21T15:34:53.711Z,3.58
2023-01-21T15:37:23.533Z,3.68
2023-01-21T15:39:52.304Z,3.50
2023-01-21T15:42:25.172Z,3.45
2023-01-21T15:45:03.078Z,3.55
2023-01-21T15:47:49.498Z,3.43
2023-01-21T15:50:21.890Z,3.45
2023-01-21T15:53:14.538Z,3.44
2023-01-21T15:56:04.491Z,3.44
2023-01-21T15:58:40.948Z,3.33
2023-01-21T16:01:15.834Z,3.38
2023-01-21T16:03:48.252Z,3.33
2023-01-21T16:06:21.286Z,3.25
2023-01-21T16:09:02.815Z,3.34
2023-01-21T16:11:41.501Z,3.32
2023-01-21T16:14:20.375Z,3.35
2023-01-21T16:16:54.276Z,3.41
2023-01-21T16:19:26.422Z,3.28
2023-01-21T16:21:56.850Z,3.38
2023-01-21T16:24:27.266Z,3.35
2023-01-21T16:26:55.069Z,3.28
2023-01-21T16:29:22.721Z,3.21
2023-01-21T16:31:51.320Z,3.37
2023-01-21T16:34:39.410Z,3.29
2023-01-21T16:37:07.233Z,3.38
2023-01-21T16:39:34.725Z,3.33
2023-01-21T16:42:03.771Z,3.35
2023-01-21T16:44:31.455Z,3.34
2023-01-21T16:46:58.978Z,3.28
2023-01-21T16:49:27.739Z,3.30
2023-01-21T16:51:57.926Z,3.26
2023-01-21T16:54:27.144Z,3.22
2023-01-21T16:56:56.724Z,3.13
2023-01-21T16:59:27.123Z,3.35
2023-01-21T17:01:55.548Z,3.30
2023-01-21T17:04:23.068Z,3.26
2023-01-21T17:06:53.796Z,3.37
2023-01-21T17:09:30.865Z,3.29
2023-01-21T17:12:01.399Z,3.25
2023-01-21T17:14:30.873Z,3.23
2023-01-21T17:16:59.823Z,3.27
2023-01-21T17:19:31.185Z,3.20
2023-01-21T17:22:01.665Z,3.09
2023-01-21T17:24:30.357Z,3.07
2023-01-21T17:27:02.494Z,3.23
2023-01-21T17:29:31.128Z,3.16
2023-01-21T17:31:59.656Z,3.13
2023-01-21T17:34:28.536Z,3.12
2023-01-21T17:36:56.788Z,3.02
2023-01-21T17:40:06.021Z,3.21
2023-01-21T17:42:39.945Z,3.21
2023-01-21T17:45:16.605Z,3.13
2023-01-21T17:48:07.333Z,3.07
2023-01-21T17:50:33.241Z,3.12
2023-01-21T17:53:03.234Z,3.18
2023-01-21T17:55:33.909Z,3.13
2023-01-21T17:58:04.554Z,3.05
2023-01-21T18:00:42.516Z,3.04
2023-01-21T18:03:10.757Z,3.07
2023-01-21T18:05:39.242Z,2.99
2023-01-21T18:08:19.503Z,3.04
2023-01-21T18:10:48.651Z,3.10
2023-01-21T18:13:17.488Z,3.12
2023-01-21T18:15:45.194Z,3.11
2023-01-21T18:18:16.853Z,3.12
2023-01-21T18:20:44.380Z,3.14
2023-01-21T18:23:12.308Z,3.08
2023-01-21T18:25:40.543Z,3.17
2023-01-21T18:28:15.674Z,3.08
2023-01-21T18:30:43.134Z,3.02
2023-01-21T18:33:11.337Z,2.98
2023-01-21T18:35:39.389Z,3.13
2023-01-21T18:38:07.333Z,3.08
2023-01-21T18:40:34.813Z,3.09
2023-01-21T18:43:02.158Z,3.02
2023-01-21T18:45:30.873Z,2.91
2023-01-21T18:47:58.631Z,2.90
2023-01-21T18:50:28.091Z,2.85
2023-01-21T18:52:55.705Z,3.02
2023-01-21T18:55:27.121Z,2.96
2023-01-21T18:57:56.233Z,3.16
2023-01-21T19:00:27.015Z,3.02
2023-01-21T19:03:14.405Z,3.02
2023-01-21T19:05:54.279Z,3.10
2023-01-21T19:09:01.977Z,3.10
2023-01-21T19:12:52.106Z,3.09
2023-01-21T19:16:05.203Z,3.05
2023-01-21T19:18:36.166Z,3.14
2023-01-21T19:21:28.123Z,2.98
2023-01-21T19:24:07.495Z,2.90
2023-01-21T19:26:59.901Z,2.95
2023-01-21T19:29:55.697Z,3.11
2023-01-21T19:32:23.606Z,2.92
2023-01-21T19:34:57.877Z,2.94
2023-01-21T19:37:26.974Z,3.02
2023-01-21T19:40:01.614Z,3.16
2023-01-21T19:42:29.127Z,2.98
2023-01-21T19:45:19.816Z,3.03
2023-01-21T19:47:49.047Z,3.15
2023-01-21T19:50:18.500Z,3.03
2023-01-21T19:52:46.761Z,3.25
2023-01-21T19:55:16.636Z,3.12
2023-01-21T19:57:45.531Z,3.15
2023-01-21T20:04:37.696Z,3.10
2023-01-21T20:11:17.886Z,3.19
2023-01-21T20:17:47.669Z,3.16
2023-01-21T20:20:17.563Z,3.26
2023-01-21T20:22:47.753Z,3.31
2023-01-21T20:25:18.061Z,3.20
2023-01-21T20:27:51.225Z,3.10
2023-01-21T20:30:22.112Z,3.30
2023-01-21T20:32:52.145Z,3.21
2023-01-21T20:35:20.805Z,3.32
2023-01-21T20:37:50.145Z,3.25
2023-01-21T20:40:20.135Z,3.30
2023-01-21T20:43:10.387Z,3.25
2023-01-21T20:45:40.023Z,3.26
2023-01-21T20:48:07.822Z,3.24
2023-01-21T20:50:35.961Z,3.27
2023-01-21T20:53:06.267Z,3.36
2023-01-21T20:55:33.869Z,3.34
2023-01-21T20:58:04.275Z,3.37
2023-01-21T21:00:33.592Z,3.34
2023-01-21T21:03:01.115Z,3.35
2023-01-21T21:05:29.438Z,3.33
2023-01-21T21:07:57.193Z,3.47
2023-01-21T21:10:26.353Z,3.33
2023-01-21T21:12:55.432Z,3.20
2023-01-21T21:15:24.379Z,3.31
2023-01-21T21:17:51.983Z,3.28
2023-01-21T21:20:21.782Z,3.24
2023-01-21T21:22:49.299Z,3.32
2023-01-21T21:25:18.246Z,3.40
2023-01-21T21:27:46.289Z,3.37
2023-01-21T21:30:15.695Z,3.41
2023-01-21T21:32:44.661Z,3.37
2023-01-21T21:35:24.592Z,3.30
2023-01-21T21:38:37.001Z,3.21
2023-01-21T21:44:09.583Z,3.14
2023-01-21T21:46:57.421Z,3.21
2023-01-21T21:49:30.386Z,3.19
2023-01-21T21:52:00.187Z,3.20
2023-01-21T21:54:27.877Z,3.20
2023-01-21T21:56:55.505Z,3.07
2023-01-21T22:00:12.460Z,3.21
2023-01-21T22:03:23.453Z,3.12
2023-01-21T22:06:40.667Z,3.29
2023-01-21T22:09:35.983Z,3.11
2023-01-21T22:12:50.818Z,3.18
2023-01-21T22:15:36.754Z,3.22
2023-01-21T22:19:18.889Z,3.31
2023-01-21T22:22:12.950Z,3.17
2023-01-21T22:25:22.260Z,3.19
2023-01-21T22:27:51.260Z,3.22
2023-01-21T22:30:18.944Z,3.17
2023-01-21T22:32:46.514Z,3.17
2023-01-21T22:35:13.920Z,3.31
2023-01-21T22:37:41.418Z,3.19
2023-01-21T22:40:10.266Z,3.12
2023-01-21T22:42:37.846Z,3.23
2023-01-21T22:45:07.817Z,3.32
2023-01-21T22:47:35.673Z,3.13
2023-01-21T22:50:03.048Z,3.28
2023-01-21T22:52:30.483Z,3.26
2023-01-21T22:54:57.838Z,3.20
2023-01-21T22:57:25.248Z,3.06
2023-01-21T22:59:52.779Z,3.17
2023-01-21T23:02:22.120Z,3.24
2023-01-21T23:04:50.436Z,3.09
2023-01-21T23:07:22.139Z,3.15
2023-01-21T23:09:54.188Z,3.11
2023-01-21T23:12:24.060Z,3.20
2023-01-21T23:14:54.612Z,3.15
2023-01-21T23:17:26.566Z,3.17
2023-01-21T23:19:54.134Z,3.04
2023-01-21T23:22:21.592Z,3.17
2023-01-21T23:24:49.011Z,3.07
2023-01-21T23:27:16.496Z,3.03
2023-01-21T23:29:43.897Z,3.05
2023-01-21T23:32:11.448Z,3.08
2023-01-21T23:34:41.484Z,3.18
2023-01-21T23:37:08.861Z,3.12
2023-01-21T23:39:36.256Z,3.08
2023-01-21T23:42:03.843Z,3.24
2023-01-21T23:44:31.804Z,3.17
2023-01-21T23:46:59.151Z,3.28
2023-01-21T23:49:26.530Z,3.13
2023-01-21T23:51:55.240Z,3.20
2023-01-21T23:54:22.662Z,3.04
2023-01-21T23:56:50.123Z,3.13
2023-01-21T23:59:17.482Z,3.24
